sensor_id;sensor_type;location;lat;lon;timestamp;pressure;altitude;pressure_sealevel;temperature;humidity
17615;BME280;8926;49.720;6.576;2023-04-10T00:01:40;100290.81;;;8.75;64.37
17615;BME280;8926;49.720;6.576;2023-04-10T00:04:05;100290.69;;;8.78;63.34
17615;BME280;8926;49.720;6.576;2023-04-10T00:06:31;100289.06;;;8.76;64.53
17615;BME280;8926;49.720;6.576;2023-04-10T00:08:57;100290.25;;;8.67;64.54
17615;BME280;8926;49.720;6.576;2023-04-10T00:11:26;100284.38;;;8.62;64.27
17615;BME280;8926;49.720;6.576;2023-04-10T00:13:52;100288.00;;;8.58;63.73
17615;BME280;8926;49.720;6.576;2023-04-10T00:16:18;100279.56;;;8.53;64.55
17615;BME280;8926;49.720;6.576;2023-04-10T00:18:43;100277.50;;;8.39;65.04
17615;BME280;8926;49.720;6.576;2023-04-10T00:21:08;100275.06;;;8.35;63.36
17615;BME280;8926;49.720;6.576;2023-04-10T00:23:34;100276.09;;;8.31;65.96
17615;BME280;8926;49.720;6.576;2023-04-10T00:26:02;100277.00;;;8.30;65.52
17615;BME280;8926;49.720;6.576;2023-04-10T00:28:27;100269.84;;;8.35;65.56
17615;BME280;8926;49.720;6.576;2023-04-10T00:30:52;100267.25;;;8.35;65.09
17615;BME280;8926;49.720;6.576;2023-04-10T00:33:18;100279.53;;;8.31;65.51
17615;BME280;8926;49.720;6.576;2023-04-10T00:35:43;100270.09;;;8.29;65.17
17615;BME280;8926;49.720;6.576;2023-04-10T00:38:09;100275.28;;;8.29;65.46
17615;BME280;8926;49.720;6.576;2023-04-10T00:40:34;100267.34;;;8.32;65.50
17615;BME280;8926;49.720;6.576;2023-04-10T00:42:59;100271.78;;;8.30;65.43
17615;BME280;8926;49.720;6.576;2023-04-10T00:45:25;100270.81;;;8.32;65.64
17615;BME280;8926;49.720;6.576;2023-04-10T00:47:51;100265.63;;;8.32;64.91
17615;BME280;8926;49.720;6.576;2023-04-10T00:50:16;100267.94;;;8.16;66.18
17615;BME280;8926;49.720;6.576;2023-04-10T00:52:42;100258.59;;;8.11;65.77
17615;BME280;8926;49.720;6.576;2023-04-10T00:55:08;100259.56;;;8.08;66.64
17615;BME280;8926;49.720;6.576;2023-04-10T00:57:33;100263.88;;;8.09;66.43
17615;BME280;8926;49.720;6.576;2023-04-10T00:59:59;100266.53;;;8.08;66.90
17615;BME280;8926;49.720;6.576;2023-04-10T01:02:25;100258.78;;;8.06;66.60
17615;BME280;8926;49.720;6.576;2023-04-10T01:04:51;100255.28;;;8.07;65.68
17615;BME280;8926;49.720;6.576;2023-04-10T01:07:53;100254.69;;;8.01;67.43
17615;BME280;8926;49.720;6.576;2023-04-10T01:13:15;100245.97;;;8.02;66.88
17615;BME280;8926;49.720;6.576;2023-04-10T01:15:54;100253.72;;;8.03;67.50
17615;BME280;8926;49.720;6.576;2023-04-10T01:18:27;100244.22;;;8.02;67.62
17615;BME280;8926;49.720;6.576;2023-04-10T01:20:56;100236.53;;;7.99;67.35
17615;BME280;8926;49.720;6.576;2023-04-10T01:23:50;100241.91;;;7.95;67.57
17615;BME280;8926;49.720;6.576;2023-04-10T01:26:31;100244.72;;;7.89;68.18
17615;BME280;8926;49.720;6.576;2023-04-10T01:29:07;100236.13;;;7.87;66.83
17615;BME280;8926;49.720;6.576;2023-04-10T01:31:48;100226.69;;;7.84;67.15
17615;BME280;8926;49.720;6.576;2023-04-10T01:34:19;100218.09;;;7.82;67.84
17615;BME280;8926;49.720;6.576;2023-04-10T01:36:52;100217.31;;;7.80;67.42
17615;BME280;8926;49.720;6.576;2023-04-10T01:39:20;100218.25;;;7.79;67.95
17615;BME280;8926;49.720;6.576;2023-04-10T01:41:49;100208.75;;;7.78;69.34
17615;BME280;8926;49.720;6.576;2023-04-10T01:44:17;100203.53;;;7.78;68.83
17615;BME280;8926;49.720;6.576;2023-04-10T01:46:47;100206.25;;;7.75;68.62
17615;BME280;8926;49.720;6.576;2023-04-10T01:49:14;100195.84;;;7.75;67.53
17615;BME280;8926;49.720;6.576;2023-04-10T01:51:40;100196.75;;;7.74;69.32
17615;BME280;8926;49.720;6.576;2023-04-10T01:54:07;100201.06;;;7.75;68.69
17615;BME280;8926;49.720;6.576;2023-04-10T01:56:34;100190.66;;;7.75;67.39
17615;BME280;8926;49.720;6.576;2023-04-10T01:58:59;100186.41;;;7.72;67.75
17615;BME280;8926;49.720;6.576;2023-04-10T02:01:25;100192.47;;;7.73;67.64
17615;BME280;8926;49.720;6.576;2023-04-10T02:03:51;100185.78;;;7.66;69.78
17615;BME280;8926;49.720;6.576;2023-04-10T02:06:33;100181.03;;;7.54;69.67
17615;BME280;8926;49.720;6.576;2023-04-10T02:11:42;100186.53;;;7.46;70.15
17615;BME280;8926;49.720;6.576;2023-04-10T02:14:10;100186.59;;;7.44;69.22
17615;BME280;8926;49.720;6.576;2023-04-10T02:16:37;100191.72;;;7.46;68.83
17615;BME280;8926;49.720;6.576;2023-04-10T02:19:04;100191.91;;;7.41;69.19
17615;BME280;8926;49.720;6.576;2023-04-10T02:21:31;100186.91;;;7.35;69.86
17615;BME280;8926;49.720;6.576;2023-04-10T02:23:58;100180.03;;;7.34;68.80
17615;BME280;8926;49.720;6.576;2023-04-10T02:26:23;100179.13;;;7.35;68.62
17615;BME280;8926;49.720;6.576;2023-04-10T02:28:48;100179.22;;;7.32;70.12
17615;BME280;8926;49.720;6.576;2023-04-10T02:31:14;100182.66;;;7.33;69.71
17615;BME280;8926;49.720;6.576;2023-04-10T02:33:39;100192.75;;;7.42;69.35
17615;BME280;8926;49.720;6.576;2023-04-10T02:36:05;100194.38;;;7.44;69.31
17615;BME280;8926;49.720;6.576;2023-04-10T02:38:30;100190.94;;;7.44;68.71
17615;BME280;8926;49.720;6.576;2023-04-10T02:40:56;100191.69;;;7.47;68.64
17615;BME280;8926;49.720;6.576;2023-04-10T02:43:21;100185.56;;;7.48;69.47
17615;BME280;8926;49.720;6.576;2023-04-10T02:45:47;100179.59;;;7.46;69.62
17615;BME280;8926;49.720;6.576;2023-04-10T02:48:12;100193.69;;;7.39;69.66
17615;BME280;8926;49.720;6.576;2023-04-10T02:50:37;100186.81;;;7.38;69.68
17615;BME280;8926;49.720;6.576;2023-04-10T02:53:03;100183.53;;;7.33;70.43
17615;BME280;8926;49.720;6.576;2023-04-10T02:55:28;100186.13;;;7.33;68.26
17615;BME280;8926;49.720;6.576;2023-04-10T02:57:53;100187.97;;;7.30;69.41
17615;BME280;8926;49.720;6.576;2023-04-10T03:00:19;100190.41;;;7.34;69.70
17615;BME280;8926;49.720;6.576;2023-04-10T03:02:44;100193.91;;;7.33;70.83
17615;BME280;8926;49.720;6.576;2023-04-10T03:05:10;100187.03;;;7.32;69.86
17615;BME280;8926;49.720;6.576;2023-04-10T03:07:35;100197.41;;;7.32;69.98
17615;BME280;8926;49.720;6.576;2023-04-10T03:10:00;100198.50;;;7.27;70.63
17615;BME280;8926;49.720;6.576;2023-04-10T03:12:26;100185.78;;;7.19;70.67
17615;BME280;8926;49.720;6.576;2023-04-10T03:14:51;100193.69;;;7.16;70.10
17615;BME280;8926;49.720;6.576;2023-04-10T03:17:17;100185.25;;;7.09;71.04
17615;BME280;8926;49.720;6.576;2023-04-10T03:19:42;100186.00;;;7.13;69.76
17615;BME280;8926;49.720;6.576;2023-04-10T03:22:07;100183.50;;;7.10;71.10
17615;BME280;8926;49.720;6.576;2023-04-10T03:24:34;100179.22;;;7.09;70.57
17615;BME280;8926;49.720;6.576;2023-04-10T03:26:59;100176.63;;;7.09;71.47
17615;BME280;8926;49.720;6.576;2023-04-10T03:29:24;100179.09;;;7.12;69.51
17615;BME280;8926;49.720;6.576;2023-04-10T03:31:49;100158.44;;;7.09;70.88
17615;BME280;8926;49.720;6.576;2023-04-10T03:34:15;100167.13;;;7.08;71.01
17615;BME280;8926;49.720;6.576;2023-04-10T03:36:41;100158.44;;;7.09;72.09
17615;BME280;8926;49.720;6.576;2023-04-10T03:39:06;100153.34;;;7.06;70.73
17615;BME280;8926;49.720;6.576;2023-04-10T03:41:31;100152.44;;;7.07;70.21
17615;BME280;8926;49.720;6.576;2023-04-10T03:43:57;100149.84;;;7.07;71.09
17615;BME280;8926;49.720;6.576;2023-04-10T03:46:22;100151.69;;;7.03;71.00
17615;BME280;8926;49.720;6.576;2023-04-10T03:48:48;100156.94;;;7.02;71.37
17615;BME280;8926;49.720;6.576;2023-04-10T03:51:15;100153.59;;;7.00;70.14
17615;BME280;8926;49.720;6.576;2023-04-10T03:53:40;100154.63;;;6.94;70.82
17615;BME280;8926;49.720;6.576;2023-04-10T03:56:06;100152.09;;;6.93;70.89
17615;BME280;8926;49.720;6.576;2023-04-10T03:58:32;100150.28;;;6.95;70.38
17615;BME280;8926;49.720;6.576;2023-04-10T04:00:57;100150.41;;;6.92;71.92
17615;BME280;8926;49.720;6.576;2023-04-10T04:03:22;100151.19;;;6.94;70.79
17615;BME280;8926;49.720;6.576;2023-04-10T04:05:48;100152.00;;;6.96;71.47
17615;BME280;8926;49.720;6.576;2023-04-10T04:08:13;100153.69;;;6.97;69.90
17615;BME280;8926;49.720;6.576;2023-04-10T04:10:38;100148.69;;;6.91;70.01
17615;BME280;8926;49.720;6.576;2023-04-10T04:13:04;100148.91;;;6.85;70.86
17615;BME280;8926;49.720;6.576;2023-04-10T04:15:29;100144.78;;;6.79;71.34
17615;BME280;8926;49.720;6.576;2023-04-10T04:17:55;100153.47;;;6.78;71.62
17615;BME280;8926;49.720;6.576;2023-04-10T04:20:21;100144.06;;;6.75;71.87
17615;BME280;8926;49.720;6.576;2023-04-10T04:22:46;100154.44;;;6.75;71.61
17615;BME280;8926;49.720;6.576;2023-04-10T04:25:11;100161.44;;;6.73;71.66
17615;BME280;8926;49.720;6.576;2023-04-10T04:27:37;100161.44;;;6.73;71.47
17615;BME280;8926;49.720;6.576;2023-04-10T04:30:03;100156.44;;;6.67;71.38
17615;BME280;8926;49.720;6.576;2023-04-10T04:32:28;100153.09;;;6.64;71.67
17615;BME280;8926;49.720;6.576;2023-04-10T04:34:54;100153.34;;;6.56;71.55
17615;BME280;8926;49.720;6.576;2023-04-10T04:37:19;100156.94;;;6.52;71.76
17615;BME280;8926;49.720;6.576;2023-04-10T04:39:45;100172.66;;;6.49;72.64
17615;BME280;8926;49.720;6.576;2023-04-10T04:42:10;100162.38;;;6.46;72.15
17615;BME280;8926;49.720;6.576;2023-04-10T04:44:35;100165.06;;;6.43;71.94
17615;BME280;8926;49.720;6.576;2023-04-10T04:47:01;100165.09;;;6.41;72.16
17615;BME280;8926;49.720;6.576;2023-04-10T04:49:26;100176.34;;;6.42;71.21
17615;BME280;8926;49.720;6.576;2023-04-10T04:51:51;100173.75;;;6.42;71.25
17615;BME280;8926;49.720;6.576;2023-04-10T04:54:17;100181.56;;;6.40;72.08
17615;BME280;8926;49.720;6.576;2023-04-10T04:56:42;100182.53;;;6.38;72.57
17615;BME280;8926;49.720;6.576;2023-04-10T04:59:08;100179.22;;;6.33;73.41
17615;BME280;8926;49.720;6.576;2023-04-10T05:01:33;100176.44;;;6.39;72.04
17615;BME280;8926;49.720;6.576;2023-04-10T05:03:58;100174.63;;;6.41;72.88
17615;BME280;8926;49.720;6.576;2023-04-10T05:06:24;100173.03;;;6.37;73.23
17615;BME280;8926;49.720;6.576;2023-04-10T05:08:50;100171.34;;;6.36;73.41
17615;BME280;8926;49.720;6.576;2023-04-10T05:11:16;100180.72;;;6.40;73.46
17615;BME280;8926;49.720;6.576;2023-04-10T05:13:42;100172.84;;;6.43;72.47
17615;BME280;8926;49.720;6.576;2023-04-10T05:16:07;100177.88;;;6.47;72.76
17615;BME280;8926;49.720;6.576;2023-04-10T05:18:34;100174.31;;;6.50;72.67
17615;BME280;8926;49.720;6.576;2023-04-10T05:20:59;100182.81;;;6.55;72.76
17615;BME280;8926;49.720;6.576;2023-04-10T05:23:25;100182.59;;;6.61;73.05
17615;BME280;8926;49.720;6.576;2023-04-10T05:25:50;100171.97;;;6.69;72.66
17615;BME280;8926;49.720;6.576;2023-04-10T05:28:16;100170.69;;;6.80;72.29
17615;BME280;8926;49.720;6.576;2023-04-10T05:30:41;100179.00;;;6.90;71.52
17615;BME280;8926;49.720;6.576;2023-04-10T05:33:07;100177.72;;;7.02;72.00
17615;BME280;8926;49.720;6.576;2023-04-10T05:35:32;100182.72;;;7.31;71.09
17615;BME280;8926;49.720;6.576;2023-04-10T05:37:57;100182.22;;;7.68;70.03
17615;BME280;8926;49.720;6.576;2023-04-10T05:40:24;100179.53;;;7.93;69.19
17615;BME280;8926;49.720;6.576;2023-04-10T05:42:50;100176.03;;;8.38;67.92
17615;BME280;8926;49.720;6.576;2023-04-10T05:45:16;100168.13;;;9.02;66.49
17615;BME280;8926;49.720;6.576;2023-04-10T05:47:42;100171.06;;;9.33;65.44
17615;BME280;8926;49.720;6.576;2023-04-10T05:50:08;100178.34;;;9.83;63.90
17615;BME280;8926;49.720;6.576;2023-04-10T05:52:33;100172.19;;;10.39;63.13
17615;BME280;8926;49.720;6.576;2023-04-10T05:54:58;100162.31;;;10.96;60.60
17615;BME280;8926;49.720;6.576;2023-04-10T05:57:24;100165.25;;;11.71;59.99
17615;BME280;8926;49.720;6.576;2023-04-10T05:59:49;100166.84;;;12.67;58.94
17615;BME280;8926;49.720;6.576;2023-04-10T06:02:15;100163.09;;;13.29;56.84
17615;BME280;8926;49.720;6.576;2023-04-10T06:04:40;100164.38;;;13.08;57.63
17615;BME280;8926;49.720;6.576;2023-04-10T06:07:06;100154.63;;;12.96;57.20
17615;BME280;8926;49.720;6.576;2023-04-10T06:09:32;100158.25;;;12.79;56.59
17615;BME280;8926;49.720;6.576;2023-04-10T06:11:57;100155.47;;;12.96;56.40
17615;BME280;8926;49.720;6.576;2023-04-10T06:14:22;100155.78;;;13.34;54.22
17615;BME280;8926;49.720;6.576;2023-04-10T06:16:47;100147.53;;;13.54;55.04
17615;BME280;8926;49.720;6.576;2023-04-10T06:19:13;100152.91;;;13.80;52.69
17615;BME280;8926;49.720;6.576;2023-04-10T06:21:38;100151.44;;;14.30;53.02
17615;BME280;8926;49.720;6.576;2023-04-10T06:24:03;100155.38;;;14.76;52.30
17615;BME280;8926;49.720;6.576;2023-04-10T06:26:29;100146.97;;;14.97;50.52
17615;BME280;8926;49.720;6.576;2023-04-10T06:28:54;100135.78;;;14.68;49.92
17615;BME280;8926;49.720;6.576;2023-04-10T06:31:20;100136.19;;;14.49;51.55
17615;BME280;8926;49.720;6.576;2023-04-10T06:33:49;100141.94;;;14.14;51.13
17615;BME280;8926;49.720;6.576;2023-04-10T06:36:15;100145.00;;;13.94;51.20
17615;BME280;8926;49.720;6.576;2023-04-10T06:38:41;100141.06;;;13.60;51.63
17615;BME280;8926;49.720;6.576;2023-04-10T06:41:06;100140.53;;;13.41;53.47
17615;BME280;8926;49.720;6.576;2023-04-10T06:43:35;100134.81;;;13.20;52.86
17615;BME280;8926;49.720;6.576;2023-04-10T06:46:02;100130.47;;;13.05;54.09
17615;BME280;8926;49.720;6.576;2023-04-10T06:48:29;100130.47;;;12.90;53.58
17615;BME280;8926;49.720;6.576;2023-04-10T06:50:54;100124.66;;;13.00;54.14
17615;BME280;8926;49.720;6.576;2023-04-10T06:53:19;100131.59;;;12.86;53.87
17615;BME280;8926;49.720;6.576;2023-04-10T06:55:45;100132.69;;;12.68;54.02
17615;BME280;8926;49.720;6.576;2023-04-10T06:58:10;100124.66;;;12.71;54.69
17615;BME280;8926;49.720;6.576;2023-04-10T07:00:36;100128.13;;;12.42;55.28
17615;BME280;8926;49.720;6.576;2023-04-10T07:03:01;100132.16;;;12.47;55.54
17615;BME280;8926;49.720;6.576;2023-04-10T07:05:26;100132.63;;;12.54;54.88
17615;BME280;8926;49.720;6.576;2023-04-10T07:07:52;100127.56;;;12.51;55.94
17615;BME280;8926;49.720;6.576;2023-04-10T07:10:17;100122.75;;;12.73;54.80
17615;BME280;8926;49.720;6.576;2023-04-10T07:12:42;100128.59;;;12.93;54.22
17615;BME280;8926;49.720;6.576;2023-04-10T07:15:08;100122.59;;;13.05;54.27
17615;BME280;8926;49.720;6.576;2023-04-10T07:17:33;100120.19;;;13.16;53.58
17615;BME280;8926;49.720;6.576;2023-04-10T07:19:59;100120.69;;;13.22;53.58
17615;BME280;8926;49.720;6.576;2023-04-10T07:22:24;100120.59;;;13.24;54.07
17615;BME280;8926;49.720;6.576;2023-04-10T07:24:50;100123.09;;;13.40;53.97
17615;BME280;8926;49.720;6.576;2023-04-10T07:27:15;100118.31;;;13.46;53.10
17615;BME280;8926;49.720;6.576;2023-04-10T07:29:41;100114.94;;;13.44;53.57
17615;BME280;8926;49.720;6.576;2023-04-10T07:32:06;100108.25;;;13.53;53.03
17615;BME280;8926;49.720;6.576;2023-04-10T07:34:32;100115.44;;;13.64;52.86
17615;BME280;8926;49.720;6.576;2023-04-10T07:36:57;100109.22;;;13.79;53.00
17615;BME280;8926;49.720;6.576;2023-04-10T07:39:22;100112.56;;;13.95;52.50
17615;BME280;8926;49.720;6.576;2023-04-10T07:41:48;100106.94;;;14.14;51.57
17615;BME280;8926;49.720;6.576;2023-04-10T07:44:13;100104.56;;;14.36;51.42
17615;BME280;8926;49.720;6.576;2023-04-10T07:46:39;100100.44;;;14.59;51.75
17615;BME280;8926;49.720;6.576;2023-04-10T07:49:04;100102.78;;;14.76;50.54
17615;BME280;8926;49.720;6.576;2023-04-10T07:51:30;100095.78;;;15.13;49.89
17615;BME280;8926;49.720;6.576;2023-04-10T07:53:55;100092.84;;;15.31;48.99
17615;BME280;8926;49.720;6.576;2023-04-10T07:56:21;100094.03;;;15.50;49.88
17615;BME280;8926;49.720;6.576;2023-04-10T07:58:48;100091.94;;;15.43;48.84
17615;BME280;8926;49.720;6.576;2023-04-10T08:01:14;100083.16;;;15.68;49.35
17615;BME280;8926;49.720;6.576;2023-04-10T08:03:42;100076.06;;;15.81;48.74
17615;BME280;8926;49.720;6.576;2023-04-10T08:06:08;100078.06;;;16.01;47.06
17615;BME280;8926;49.720;6.576;2023-04-10T08:08:41;100072.88;;;16.23;47.17
17615;BME280;8926;49.720;6.576;2023-04-10T08:13:49;100067.19;;;16.52;45.51
17615;BME280;8926;49.720;6.576;2023-04-10T08:16:17;100061.00;;;16.64;45.23
17615;BME280;8926;49.720;6.576;2023-04-10T08:18:42;100061.28;;;16.83;44.69
17615;BME280;8926;49.720;6.576;2023-04-10T08:21:07;100052.84;;;17.23;44.40
17615;BME280;8926;49.720;6.576;2023-04-10T08:23:33;100055.44;;;17.68;43.20
17615;BME280;8926;49.720;6.576;2023-04-10T08:25:58;100051.72;;;18.02;42.75
17615;BME280;8926;49.720;6.576;2023-04-10T08:28:23;100043.03;;;18.32;41.45
17615;BME280;8926;49.720;6.576;2023-04-10T08:30:48;100045.66;;;18.53;40.50
17615;BME280;8926;49.720;6.576;2023-04-10T08:33:14;100036.91;;;18.31;40.82
17615;BME280;8926;49.720;6.576;2023-04-10T08:35:39;100038.78;;;18.41;39.98
17615;BME280;8926;49.720;6.576;2023-04-10T08:38:05;100032.06;;;18.57;41.16
17615;BME280;8926;49.720;6.576;2023-04-10T08:40:30;100031.16;;;18.47;40.13
17615;BME280;8926;49.720;6.576;2023-04-10T08:42:55;100024.66;;;18.30;39.38
17615;BME280;8926;49.720;6.576;2023-04-10T08:45:21;100025.75;;;18.28;40.08
17615;BME280;8926;49.720;6.576;2023-04-10T08:47:47;100014.06;;;18.30;40.64
17615;BME280;8926;49.720;6.576;2023-04-10T08:50:16;100011.66;;;18.48;40.37
17615;BME280;8926;49.720;6.576;2023-04-10T08:52:43;100006.84;;;18.33;39.61
17615;BME280;8926;49.720;6.576;2023-04-10T08:55:11;100000.13;;;18.28;38.93
17615;BME280;8926;49.720;6.576;2023-04-10T08:57:37;100007.03;;;18.41;39.18
17615;BME280;8926;49.720;6.576;2023-04-10T09:00:03;99999.09;;;18.61;38.72
17615;BME280;8926;49.720;6.576;2023-04-10T09:02:28;99992.88;;;18.72;39.20
17615;BME280;8926;49.720;6.576;2023-04-10T09:04:55;99993.41;;;18.66;37.39
17615;BME280;8926;49.720;6.576;2023-04-10T09:07:23;99982.88;;;18.55;38.07
17615;BME280;8926;49.720;6.576;2023-04-10T09:09:48;99975.19;;;18.52;37.23
17615;BME280;8926;49.720;6.576;2023-04-10T09:12:13;99977.63;;;18.34;37.34
17615;BME280;8926;49.720;6.576;2023-04-10T09:14:41;99972.47;;;18.33;37.00
17615;BME280;8926;49.720;6.576;2023-04-10T09:19:35;99967.09;;;18.44;37.44
17615;BME280;8926;49.720;6.576;2023-04-10T09:22:01;99962.69;;;18.54;37.34
17615;BME280;8926;49.720;6.576;2023-04-10T09:24:26;99957.50;;;18.73;36.72
17615;BME280;8926;49.720;6.576;2023-04-10T09:26:52;99963.13;;;18.89;36.63
17615;BME280;8926;49.720;6.576;2023-04-10T09:29:17;99946.78;;;19.34;37.04
17615;BME280;8926;49.720;6.576;2023-04-10T09:31:43;99933.84;;;19.70;35.69
17615;BME280;8926;49.720;6.576;2023-04-10T09:36:34;99937.81;;;20.22;33.25
17615;BME280;8926;49.720;6.576;2023-04-10T09:39:01;99939.88;;;20.38;33.04
17615;BME280;8926;49.720;6.576;2023-04-10T09:41:27;99936.94;;;20.41;33.15
17615;BME280;8926;49.720;6.576;2023-04-10T09:44:06;99943.84;;;20.61;32.76
17615;BME280;8926;49.720;6.576;2023-04-10T09:46:32;99934.41;;;20.76;33.21
17615;BME280;8926;49.720;6.576;2023-04-10T09:48:58;99933.78;;;20.55;32.17
17615;BME280;8926;49.720;6.576;2023-04-10T09:51:30;99936.25;;;20.39;32.35
17615;BME280;8926;49.720;6.576;2023-04-10T09:53:55;99930.78;;;20.40;32.31
17615;BME280;8926;49.720;6.576;2023-04-10T09:56:21;99937.63;;;20.33;32.42
17615;BME280;8926;49.720;6.576;2023-04-10T09:58:48;99933.31;;;20.42;32.57
17615;BME280;8926;49.720;6.576;2023-04-10T10:01:13;99940.41;;;20.31;32.23
17615;BME280;8926;49.720;6.576;2023-04-10T10:03:40;99943.97;;;20.13;32.42
17615;BME280;8926;49.720;6.576;2023-04-10T10:06:05;99928.94;;;19.94;32.20
17615;BME280;8926;49.720;6.576;2023-04-10T10:08:32;99928.38;;;19.90;33.77
17615;BME280;8926;49.720;6.576;2023-04-10T10:10:59;99925.59;;;19.92;33.41
17615;BME280;8926;49.720;6.576;2023-04-10T10:13:36;99928.66;;;19.78;32.30
17615;BME280;8926;49.720;6.576;2023-04-10T10:16:12;99920.03;;;19.56;32.79
17615;BME280;8926;49.720;6.576;2023-04-10T10:21:35;99924.59;;;19.35;32.37
17615;BME280;8926;49.720;6.576;2023-04-10T10:24:06;99924.47;;;19.46;32.24
17615;BME280;8926;49.720;6.576;2023-04-10T10:26:32;99918.63;;;19.52;32.26
17615;BME280;8926;49.720;6.576;2023-04-10T10:29:02;99919.06;;;19.57;31.70
17615;BME280;8926;49.720;6.576;2023-04-10T10:31:30;99918.63;;;19.52;32.21
17615;BME280;8926;49.720;6.576;2023-04-10T10:33:59;99909.41;;;19.37;31.91
17615;BME280;8926;49.720;6.576;2023-04-10T10:36:29;99913.00;;;19.26;32.32
17615;BME280;8926;49.720;6.576;2023-04-10T10:42:05;99894.78;;;19.43;32.06
17615;BME280;8926;49.720;6.576;2023-04-10T10:44:35;99889.63;;;19.60;32.00
17615;BME280;8926;49.720;6.576;2023-04-10T10:47:09;99882.66;;;19.59;32.43
17615;BME280;8926;49.720;6.576;2023-04-10T10:49:50;99885.16;;;19.71;31.76
17615;BME280;8926;49.720;6.576;2023-04-10T10:52:35;99862.38;;;19.78;31.90
17615;BME280;8926;49.720;6.576;2023-04-10T10:58:02;99847.91;;;20.09;31.39
17615;BME280;8926;49.720;6.576;2023-04-10T11:05:58;99854.19;;;19.52;31.18
17615;BME280;8926;49.720;6.576;2023-04-10T11:11:18;99846.09;;;19.34;31.09
17615;BME280;8926;49.720;6.576;2023-04-10T11:21:25;99836.91;;;19.09;31.66
17615;BME280;8926;49.720;6.576;2023-04-10T11:31:57;99821.97;;;18.98;32.00
17615;BME280;8926;49.720;6.576;2023-04-10T11:34:23;99831.31;;;18.93;32.45
17615;BME280;8926;49.720;6.576;2023-04-10T11:36:48;99830.22;;;18.95;32.04
17615;BME280;8926;49.720;6.576;2023-04-10T11:39:15;99819.31;;;18.98;32.33
17615;BME280;8926;49.720;6.576;2023-04-10T11:41:44;99823.53;;;19.11;33.41
17615;BME280;8926;49.720;6.576;2023-04-10T11:44:13;99824.91;;;19.05;32.70
17615;BME280;8926;49.720;6.576;2023-04-10T11:46:43;99831.19;;;18.94;33.17
17615;BME280;8926;49.720;6.576;2023-04-10T11:49:24;99836.19;;;18.88;33.21
17615;BME280;8926;49.720;6.576;2023-04-10T11:51:51;99825.16;;;18.73;33.45
17615;BME280;8926;49.720;6.576;2023-04-10T11:54:18;99818.47;;;18.69;33.95
17615;BME280;8926;49.720;6.576;2023-04-10T11:56:45;99815.97;;;18.77;34.32
17615;BME280;8926;49.720;6.576;2023-04-10T11:59:18;99804.84;;;18.93;34.85
17615;BME280;8926;49.720;6.576;2023-04-10T12:01:44;99796.06;;;18.92;34.99
17615;BME280;8926;49.720;6.576;2023-04-10T12:04:17;99795.94;;;18.94;35.08
17615;BME280;8926;49.720;6.576;2023-04-10T12:06:47;99788.81;;;19.14;35.13
17615;BME280;8926;49.720;6.576;2023-04-10T12:09:14;99789.78;;;19.13;35.18
17615;BME280;8926;49.720;6.576;2023-04-10T12:11:48;99794.81;;;19.06;34.59
17615;BME280;8926;49.720;6.576;2023-04-10T12:14:15;99786.88;;;18.96;34.51
17615;BME280;8926;49.720;6.576;2023-04-10T12:16:41;99777.25;;;18.95;34.96
17615;BME280;8926;49.720;6.576;2023-04-10T12:19:06;99769.16;;;19.07;35.00
17615;BME280;8926;49.720;6.576;2023-04-10T12:21:35;99766.09;;;19.02;34.91
17615;BME280;8926;49.720;6.576;2023-04-10T12:24:00;99775.00;;;19.01;35.52
17615;BME280;8926;49.720;6.576;2023-04-10T12:26:26;99770.97;;;18.77;34.85
17615;BME280;8926;49.720;6.576;2023-04-10T12:28:53;99777.53;;;18.63;35.65
17615;BME280;8926;49.720;6.576;2023-04-10T12:33:46;99773.06;;;18.64;35.24
17615;BME280;8926;49.720;6.576;2023-04-10T12:36:22;99775.25;;;18.59;35.61
17615;BME280;8926;49.720;6.576;2023-04-10T12:38:48;99762.13;;;18.48;35.50
17615;BME280;8926;49.720;6.576;2023-04-10T12:41:20;99779.38;;;18.33;36.39
17615;BME280;8926;49.720;6.576;2023-04-10T12:43:46;99768.47;;;18.16;36.36
17615;BME280;8926;49.720;6.576;2023-04-10T12:46:23;99762.50;;;18.14;36.65
17615;BME280;8926;49.720;6.576;2023-04-10T12:48:49;99760.56;;;18.16;36.67
17615;BME280;8926;49.720;6.576;2023-04-10T12:51:14;99756.22;;;18.15;36.61
17615;BME280;8926;49.720;6.576;2023-04-10T12:53:43;99748.16;;;18.17;37.05
17615;BME280;8926;49.720;6.576;2023-04-10T12:56:12;99745.53;;;18.26;37.23
17615;BME280;8926;49.720;6.576;2023-04-10T12:58:38;99740.38;;;18.25;37.02
17615;BME280;8926;49.720;6.576;2023-04-10T13:01:05;99740.66;;;18.31;36.59
17615;BME280;8926;49.720;6.576;2023-04-10T13:03:35;99736.34;;;18.30;36.85
17615;BME280;8926;49.720;6.576;2023-04-10T13:06:01;99739.66;;;18.13;36.43
17615;BME280;8926;49.720;6.576;2023-04-10T13:08:27;99728.69;;;18.18;37.05
17615;BME280;8926;49.720;6.576;2023-04-10T13:10:52;99727.00;;;18.26;36.70
17615;BME280;8926;49.720;6.576;2023-04-10T13:13:19;99721.03;;;18.24;36.46
17615;BME280;8926;49.720;6.576;2023-04-10T13:15:44;99721.41;;;18.10;36.56
17615;BME280;8926;49.720;6.576;2023-04-10T13:18:10;99713.75;;;18.07;36.88
17615;BME280;8926;49.720;6.576;2023-04-10T13:20:37;99711.13;;;18.07;37.18
17615;BME280;8926;49.720;6.576;2023-04-10T13:23:03;99705.56;;;18.10;36.54
17615;BME280;8926;49.720;6.576;2023-04-10T13:25:37;99710.00;;;18.10;36.28
17615;BME280;8926;49.720;6.576;2023-04-10T13:28:04;99700.22;;;18.01;36.44
17615;BME280;8926;49.720;6.576;2023-04-10T13:30:34;99715.56;;;18.07;36.37
17615;BME280;8926;49.720;6.576;2023-04-10T13:33:00;99705.03;;;18.16;36.43
17615;BME280;8926;49.720;6.576;2023-04-10T13:35:25;99698.06;;;18.25;36.99
17615;BME280;8926;49.720;6.576;2023-04-10T13:37:51;99695.72;;;18.31;36.46
17615;BME280;8926;49.720;6.576;2023-04-10T13:40:19;99692.50;;;18.38;36.54
17615;BME280;8926;49.720;6.576;2023-04-10T13:42:44;99691.97;;;18.44;37.19
17615;BME280;8926;49.720;6.576;2023-04-10T13:45:10;99695.59;;;18.43;36.43
17615;BME280;8926;49.720;6.576;2023-04-10T13:47:35;99679.81;;;18.22;36.37
17615;BME280;8926;49.720;6.576;2023-04-10T13:50:01;99668.81;;;18.26;36.68
17615;BME280;8926;49.720;6.576;2023-04-10T13:52:26;99670.50;;;18.18;36.54
17615;BME280;8926;49.720;6.576;2023-04-10T13:54:51;99659.22;;;18.06;37.08